PACM

Details ICAO PACM (SCM)
Name SCAMMON BAY
Region USA (Alaska)
Timezone America/Nome (UTC-9.0)
Plans Departing 0
Arriving 0
Stats Elevation 14 ft / 4 m (AMSL)
Location 61.844540° -165.573750°
Runways 1
Magnetic Variation 9.850° E
Sunrise 2017-12-14 20:19:41 UTC / 2017-12-14 11:19:41 Local
Sunset 2017-12-15 01:37:30 UTC / 2017-12-14 16:37:30 Local
Advertisement - Login to hide

Runways

ID Width Length Bearing (true) Bearing (mag) Surface Threshold Offset Overrun Length
10 75 ft / 23 m 2,991 ft / 912 m 113.46° 103.61° Gravel 0 ft / 0 m 299 ft / 91 m
28 75 ft / 23 m 2,991 ft / 912 m 293.47° 283.62° Gravel 0 ft / 0 m 299 ft / 91 m

Map

Weather


0- 5 10 15 20 25 30 35+ Temperature / ° C

Clouds and Precipitation
Forecast for 2017-12-15 00:00 UTC. Updated 5 minutes ago

Ground ~20,000 ft ~40,000 ft Winds

METAR

PACM 141856Z AUTO 18005KT 10SM OVC050 M07/M11 A2961 RMK AO2 SLP023 T10671111 FZRANO

TAF

Not found

Frequencies

Recorded 118.42 MHz ASOS
Unicom 123.00 MHz CTAF/UNICOM
Warning: Do not use this data for real-world aviation or navigation. No guarantee of current accuracy is given.